Hovedside
METAR-TAF:

METAR-TAF

Lufthavner :

Uppsala, Sverige

breddegrad: 59-53N, lengdegrad: 017-36E, høyde over havet: 21 m

Gjeldene værobservasjon

Denne rapporten ble laget for 36 minutter siden, klokken 10:20 UTC
Vind 11 kt fra Sør
Temperatur 18°C
Luftfuktighet 83%
Trykk 999 hPa
Sikt 10 km eller mer

METAR: ESCM 211020Z AUTO 17011KT 9999 FEW160/// 18/15 Q0999

Tid: 12:56 (10:56 UTC)

Varsel

Denne rapporten ble laget for 23 timer og 26 minutter siden, klokken 11:30 UTC
Varsel gyldig fra 20. klokken 12 UTC til 20. klokken 14 UTC
Vind 24 kt fra Vest-sørvest med vindkast opp mot 34 kt
Sikt 10 km eller mer
Få skyer i en høyde av 4000 ft

TAF: ESCM 201130Z 2012/2014 24024G34KT 9999 FEW040 RMK MIL

Værobservasjoner og værvarsel for over 4000 flyplasser (METAR- og TAF-rapporter).

Tilgjengelige stasjoner er representert av de røde og gule prikkene på kartet.

Hold musepekeren over prikken for å se navnet på stasjonen.

Klikk så for å se værobservasjoner og -varsler.

For å forandre kartet kan du klikke på den grønne knappen med svart kryss for å zoome inn, på den grønne knappen med strek for å zoome ut, eller på de grønne pilene for å se tilstøtende kart.


METAR-TAF: